createdAt,value
2019-03-08T00:02:30.566Z,95455.46
2019-03-08T00:05:20.452Z,95468.55
2019-03-08T00:08:03.495Z,95467.97
2019-03-08T00:10:53.268Z,95466.26
2019-03-08T00:13:37.416Z,95468.42
2019-03-08T00:16:27.322Z,95446.52
2019-03-08T00:19:17.082Z,95461.31
2019-03-08T00:25:20.365Z,95467.73
2019-03-08T00:28:10.067Z,95476.27
2019-03-08T00:30:54.620Z,95476.06
2019-03-08T00:33:36.731Z,95473.75
2019-03-08T00:36:26.612Z,95483.25
2019-03-08T00:39:16.347Z,95491.02
2019-03-08T00:42:06.088Z,95490.81
2019-03-08T00:44:50.647Z,95490.81
2019-03-08T00:47:34.580Z,95499.54
2019-03-08T00:50:16.647Z,95495.47
2019-03-08T00:53:06.542Z,95504.56
2019-03-08T00:55:51.490Z,95495.45
2019-03-08T00:58:41.226Z,95502.64
2019-03-08T01:01:30.962Z,95511.14
2019-03-08T01:07:08.268Z,95499.98
2019-03-08T01:09:58.033Z,95526.37
2019-03-08T01:12:44.791Z,95505.80
2019-03-08T01:15:27.154Z,95531.05
2019-03-08T01:18:16.916Z,95528.73
2019-03-08T01:21:01.250Z,95511.25
2019-03-08T01:23:51.018Z,95528.91
2019-03-08T01:26:21.676Z,95533.55
2019-03-08T01:29:11.392Z,95535.50
2019-03-08T01:32:01.110Z,95536.70
2019-03-08T01:34:51.475Z,95548.11
2019-03-08T01:37:33.532Z,95541.36
2019-03-08T01:40:23.336Z,95526.83
2019-03-08T01:43:05.945Z,95541.57
2019-03-08T01:45:55.646Z,95546.23
2019-03-08T01:48:37.766Z,95549.18
2019-03-08T01:51:27.462Z,95547.82
2019-03-08T01:54:09.561Z,95541.98
2019-03-08T01:56:59.392Z,95539.88
2019-03-08T01:59:41.911Z,95550.14
2019-03-08T02:02:12.563Z,95535.58
2019-03-08T02:05:02.252Z,95558.25
2019-03-08T02:07:44.370Z,95543.52
2019-03-08T02:10:34.150Z,95542.17
2019-03-08T02:13:16.054Z,95547.80
2019-03-08T02:16:05.799Z,95549.34
2019-03-08T02:18:48.133Z,95544.70
2019-03-08T02:21:38.124Z,95545.45
2019-03-08T02:24:20.982Z,95517.89
2019-03-08T02:30:04.705Z,95547.17
2019-03-08T02:32:54.461Z,95547.17
2019-03-08T02:35:44.231Z,95549.70
2019-03-08T02:38:33.983Z,95526.22
2019-03-08T02:41:23.859Z,95552.41
2019-03-08T02:44:13.661Z,95554.55
2019-03-08T02:47:03.407Z,95552.98
2019-03-08T02:50:12.664Z,95553.53
2019-03-08T02:53:02.444Z,95559.73
2019-03-08T02:55:46.913Z,95556.61
2019-03-08T02:58:36.692Z,95558.14
2019-03-08T03:01:45.485Z,95572.23
2019-03-08T03:04:27.481Z,95579.83
2019-03-08T03:07:29.783Z,95589.70
2019-03-08T03:10:11.703Z,95592.05
2019-03-08T03:13:01.613Z,95607.02
2019-03-08T03:15:43.679Z,95599.33
2019-03-08T03:18:33.387Z,95613.48
2019-03-08T03:21:15.581Z,95593.67
2019-03-08T03:24:05.373Z,95627.86
2019-03-08T03:26:47.763Z,95607.98
2019-03-08T03:29:37.459Z,95637.50
2019-03-08T03:32:20.270Z,95629.52
2019-03-08T03:35:10.001Z,95626.49
2019-03-08T03:37:52.451Z,95634.23
2019-03-08T03:40:42.151Z,95656.09
2019-03-08T03:43:24.616Z,95646.22
2019-03-08T03:46:14.333Z,95654.27
2019-03-08T03:48:56.958Z,95659.16
2019-03-08T03:51:46.702Z,95661.18
2019-03-08T03:54:29.045Z,95666.86
2019-03-08T03:57:37.897Z,95652.12
2019-03-08T04:00:20.239Z,95664.32
2019-03-08T04:03:09.999Z,95664.41
2019-03-08T04:05:59.748Z,95640.08
2019-03-08T04:08:49.497Z,95675.56
2019-03-08T04:11:20.143Z,95668.60
2019-03-08T04:14:09.865Z,95667.86
2019-03-08T04:16:52.961Z,95673.23
2019-03-08T04:19:42.760Z,95681.75
2019-03-08T04:22:32.460Z,95683.69
2019-03-08T04:25:15.093Z,95691.06
2019-03-08T04:28:05.180Z,95675.95
2019-03-08T04:30:47.869Z,95691.06
2019-03-08T04:33:37.593Z,95666.91
2019-03-08T04:36:22.091Z,95700.36
2019-03-08T04:39:11.930Z,95715.31
2019-03-08T04:42:01.962Z,95707.59
2019-03-08T04:44:51.725Z,95703.25
2019-03-08T04:47:41.517Z,95715.92
2019-03-08T04:50:31.291Z,95723.44
2019-03-08T04:53:21.078Z,95718.20
2019-03-08T04:56:10.978Z,95722.60
2019-03-08T04:59:00.770Z,95729.60
2019-03-08T05:02:02.970Z,95722.03
2019-03-08T05:04:46.951Z,95727.98
2019-03-08T05:07:36.637Z,95728.36
2019-03-08T05:10:18.746Z,95729.56
2019-03-08T05:13:08.489Z,95740.83
2019-03-08T05:15:51.148Z,95746.42
2019-03-08T05:18:40.843Z,95741.01
2019-03-08T05:21:23.015Z,95748.96
2019-03-08T05:24:12.764Z,95748.66
2019-03-08T05:26:58.831Z,95748.39
2019-03-08T05:29:48.540Z,95725.67
2019-03-08T05:32:31.522Z,95760.77
2019-03-08T05:35:21.285Z,95730.31
2019-03-08T05:38:05.544Z,95754.44
2019-03-08T05:40:55.294Z,95764.94
2019-03-08T05:43:38.007Z,95771.66
2019-03-08T05:46:27.714Z,95762.67
2019-03-08T05:49:09.912Z,95769.88
2019-03-08T05:51:59.644Z,95774.43
2019-03-08T05:54:41.602Z,95774.86
2019-03-08T05:57:31.335Z,95751.59
2019-03-08T06:00:19.051Z,95783.70
2019-03-08T06:03:08.778Z,95783.52
2019-03-08T06:05:51.439Z,95771.61
2019-03-08T06:08:41.166Z,95792.77
2019-03-08T06:11:23.244Z,95776.30
2019-03-08T06:13:53.926Z,95801.75
2019-03-08T06:16:43.650Z,95799.89
2019-03-08T06:19:25.693Z,95803.95
2019-03-08T06:22:15.472Z,95806.84
2019-03-08T06:25:05.606Z,95817.78
2019-03-08T06:27:55.373Z,95824.37
2019-03-08T06:30:45.159Z,95836.23
2019-03-08T06:33:34.901Z,95829.72
2019-03-08T06:39:41.523Z,95841.28
2019-03-08T06:42:31.247Z,95841.46
2019-03-08T06:45:14.118Z,95828.74
2019-03-08T06:48:04.013Z,95851.72
2019-03-08T06:50:46.155Z,95858.66
2019-03-08T06:53:35.863Z,95861.73
2019-03-08T06:56:18.567Z,95872.19
2019-03-08T06:59:27.239Z,95880.52
2019-03-08T07:02:15.139Z,95883.08
2019-03-08T07:05:04.875Z,95890.41
2019-03-08T07:07:46.785Z,95897.07
2019-03-08T07:10:36.503Z,95896.59
2019-03-08T07:13:18.655Z,95900.11
2019-03-08T07:16:13.144Z,95905.17
2019-03-08T07:18:52.307Z,95911.27
2019-03-08T07:22:00.900Z,95907.00
2019-03-08T07:25:06.603Z,95920.84
2019-03-08T07:28:15.143Z,95926.37
2019-03-08T07:31:16.797Z,95939.05
2019-03-08T07:34:25.347Z,95935.30
2019-03-08T07:37:26.975Z,95944.30
2019-03-08T07:40:35.494Z,95947.19
2019-03-08T07:43:44.036Z,95953.20
2019-03-08T07:46:42.315Z,95953.78
2019-03-08T07:49:50.853Z,95963.86
2019-03-08T07:52:59.426Z,95980.13
2019-03-08T07:55:54.005Z,95972.91
2019-03-08T07:59:02.571Z,95976.66
2019-03-08T08:02:04.055Z,95977.80
2019-03-08T08:05:01.748Z,95984.87
2019-03-08T08:08:15.348Z,95995.77
2019-03-08T08:11:19.296Z,95997.77
2019-03-08T08:14:27.906Z,96007.55
2019-03-08T08:17:35.706Z,96010.69
2019-03-08T08:20:44.312Z,96014.28
2019-03-08T08:23:46.035Z,96021.66
2019-03-08T08:26:48.687Z,96029.98
2019-03-08T08:29:57.318Z,96039.30
2019-03-08T08:33:05.944Z,96048.16
2019-03-08T08:36:14.570Z,96040.77
2019-03-08T08:39:15.950Z,96031.28
2019-03-08T08:42:15.607Z,96032.73
2019-03-08T08:48:24.788Z,96050.62
2019-03-08T08:51:26.537Z,96060.13
2019-03-08T08:54:32.902Z,96054.32
2019-03-08T08:57:41.590Z,96055.08
2019-03-08T09:00:37.556Z,96057.62
2019-03-08T09:03:46.186Z,96070.39
2019-03-08T09:06:35.622Z,96070.09
2019-03-08T09:09:36.833Z,96078.71
2019-03-08T09:12:45.356Z,96065.52
2019-03-08T09:15:36.038Z,96095.53
2019-03-08T09:18:32.733Z,96105.38
2019-03-08T09:21:35.697Z,96106.95
2019-03-08T09:24:44.211Z,96111.92
2019-03-08T09:27:46.626Z,96106.61
2019-03-08T09:30:55.181Z,96103.60
2019-03-08T09:33:48.123Z,96097.80
2019-03-08T09:36:56.666Z,96101.25
2019-03-08T09:39:55.515Z,96109.59
2019-03-08T09:43:04.061Z,96112.75
2019-03-08T09:46:05.340Z,96120.16
2019-03-08T09:48:54.772Z,96125.62
2019-03-08T09:51:56.255Z,96128.09
2019-03-08T09:54:54.501Z,96128.87
2019-03-08T09:57:48.424Z,96138.64
2019-03-08T10:00:56.909Z,96143.20
2019-03-08T10:03:58.137Z,96139.78
2019-03-08T10:06:56.432Z,96111.73
2019-03-08T10:09:49.103Z,96127.69
2019-03-08T10:12:57.629Z,96139.86
2019-03-08T10:15:53.412Z,96150.73
2019-03-08T10:19:01.917Z,96152.23
2019-03-08T10:22:03.911Z,96123.25
2019-03-08T10:25:12.457Z,96153.52
2019-03-08T10:28:19.650Z,96165.22
2019-03-08T10:31:28.151Z,96170.41
2019-03-08T10:34:32.399Z,96171.36
2019-03-08T10:37:40.937Z,96154.54
2019-03-08T10:40:42.298Z,96174.62
2019-03-08T10:43:36.837Z,96181.16
2019-03-08T10:46:38.445Z,96186.98
2019-03-08T10:49:54.877Z,96180.75
2019-03-08T10:52:35.891Z,96173.97
2019-03-08T10:55:46.088Z,96184.67
2019-03-08T10:58:47.669Z,96187.37
2019-03-08T11:01:56.179Z,96183.41
2019-03-08T11:04:48.113Z,96179.00
2019-03-08T11:07:56.891Z,96176.82
2019-03-08T11:11:06.064Z,96188.39
2019-03-08T11:14:08.593Z,96179.62
2019-03-08T11:17:07.299Z,96187.45
2019-03-08T11:20:15.829Z,96182.81
2019-03-08T11:23:19.014Z,96194.52
2019-03-08T11:26:27.587Z,96194.62
2019-03-08T11:29:29.265Z,96186.16
2019-03-08T11:32:37.773Z,96201.11
2019-03-08T11:35:41.981Z,96193.20
2019-03-08T11:38:37.328Z,96194.64
2019-03-08T11:41:30.607Z,96201.34
2019-03-08T11:44:39.170Z,96194.75
2019-03-08T11:47:46.527Z,96197.05
2019-03-08T11:50:47.921Z,96198.08
2019-03-08T11:53:56.687Z,96189.08
2019-03-08T11:57:05.244Z,96184.72
2019-03-08T12:00:01.579Z,96195.98
2019-03-08T12:03:10.104Z,96197.91
2019-03-08T12:06:18.650Z,96197.84
2019-03-08T12:09:15.093Z,96184.77
2019-03-08T12:12:23.670Z,96187.84
2019-03-08T12:15:32.566Z,96190.20
2019-03-08T12:18:26.778Z,96194.80
2019-03-08T12:21:35.368Z,96198.02
2019-03-08T12:24:43.948Z,96194.62
2019-03-08T12:27:40.563Z,96197.56
2019-03-08T12:30:35.978Z,96197.90
2019-03-08T12:33:44.627Z,96203.05
2019-03-08T12:36:53.312Z,96205.36
2019-03-08T12:40:01.853Z,96198.84
2019-03-08T12:43:08.357Z,96207.97
2019-03-08T12:46:10.694Z,96210.45
2019-03-08T12:49:19.343Z,96210.73
2019-03-08T12:52:27.908Z,96218.11
2019-03-08T12:55:36.496Z,96214.76
2019-03-08T12:58:45.102Z,96210.30
2019-03-08T13:01:53.658Z,96213.59
2019-03-08T13:04:55.131Z,96211.83
2019-03-08T13:08:04.272Z,96209.38
2019-03-08T13:10:46.922Z,96183.66
2019-03-08T13:13:55.782Z,96188.52
2019-03-08T13:16:45.609Z,96197.81
2019-03-08T13:19:35.438Z,96199.89
2019-03-08T13:22:25.219Z,96206.23
2019-03-08T13:25:15.145Z,96201.33
2019-03-08T13:28:04.972Z,96205.83
2019-03-08T13:30:54.820Z,96201.97
2019-03-08T13:33:44.705Z,96201.83
2019-03-08T13:36:27.073Z,96196.63
2019-03-08T13:39:16.813Z,96181.81
2019-03-08T13:41:59.165Z,96200.68
2019-03-08T13:44:49.185Z,96215.80
2019-03-08T13:47:39.025Z,96218.13
2019-03-08T13:50:28.757Z,96202.28
2019-03-08T13:56:21.666Z,96201.77
2019-03-08T14:05:02.083Z,96203.76
2019-03-08T14:07:52.037Z,96209.61
2019-03-08T14:10:41.837Z,96203.26
2019-03-08T14:13:31.570Z,96196.99
2019-03-08T14:16:21.361Z,96202.76
2019-03-08T14:19:13.039Z,96193.91
2019-03-08T14:22:16.158Z,96205.26
2019-03-08T14:24:59.221Z,96206.80
2019-03-08T14:27:48.943Z,96208.44
2019-03-08T14:30:36.000Z,96208.49
2019-03-08T14:33:25.399Z,96213.16
2019-03-08T14:36:09.027Z,96195.45
2019-03-08T14:38:58.785Z,96201.89
2019-03-08T14:45:18.281Z,96194.44
2019-03-08T14:48:01.758Z,96197.37
2019-03-08T14:50:51.639Z,96204.52
2019-03-08T14:53:41.490Z,96207.45
2019-03-08T14:56:24.084Z,96216.25
2019-03-08T14:59:15.334Z,96207.82
2019-03-08T15:01:58.644Z,96191.22
2019-03-08T15:04:48.422Z,96204.80
2019-03-08T15:07:30.533Z,96208.58
2019-03-08T15:10:20.564Z,96205.87
2019-03-08T15:13:10.351Z,96208.89
2019-03-08T15:16:02.104Z,96206.71
2019-03-08T15:18:44.343Z,96199.33
2019-03-08T15:24:28.136Z,96209.43
2019-03-08T15:27:17.950Z,96217.96
2019-03-08T15:33:23.882Z,96224.27
2019-03-08T15:36:06.454Z,96200.78
2019-03-08T15:38:58.743Z,96211.30
2019-03-08T15:41:40.972Z,96213.63
2019-03-08T15:44:30.742Z,96204.75
2019-03-08T15:47:23.870Z,96197.87
2019-03-08T15:50:04.563Z,96207.65
2019-03-08T15:52:55.815Z,96204.80
2019-03-08T15:55:52.623Z,96207.44
2019-03-08T15:58:29.754Z,96205.22
2019-03-08T16:01:19.655Z,96206.14
2019-03-08T16:10:05.382Z,96209.62
2019-03-08T16:12:55.070Z,96215.70
2019-03-08T16:16:03.899Z,96207.50
2019-03-08T16:18:53.659Z,96207.00
2019-03-08T16:21:35.932Z,96210.28
2019-03-08T16:24:27.351Z,96201.91
2019-03-08T16:27:10.205Z,96201.69
2019-03-08T16:30:02.992Z,96174.87
2019-03-08T16:42:33.114Z,96192.36
2019-03-08T16:45:41.648Z,96193.77
2019-03-08T16:51:51.763Z,96200.68
2019-03-08T16:55:00.305Z,96201.80
2019-03-08T16:58:03.061Z,96202.61
2019-03-08T17:01:11.662Z,96208.08
2019-03-08T17:04:13.194Z,96221.16
2019-03-08T17:07:21.808Z,96215.08
2019-03-08T17:10:25.675Z,96232.56
2019-03-08T17:13:34.213Z,96232.45
2019-03-08T17:16:25.103Z,96238.12
2019-03-08T17:19:33.675Z,96236.39
2019-03-08T17:22:36.363Z,96247.56
2019-03-08T17:25:44.902Z,96241.95
2019-03-08T17:28:49.004Z,96251.16
2019-03-08T17:31:57.376Z,96249.55
2019-03-08T17:38:09.074Z,96266.17
2019-03-08T17:41:11.893Z,96264.63
2019-03-08T17:44:20.387Z,96272.38
2019-03-08T17:47:21.666Z,96275.98
2019-03-08T17:50:30.355Z,96274.94
2019-03-08T17:53:35.227Z,96274.89
2019-03-08T17:56:34.164Z,96279.05
2019-03-08T17:59:35.666Z,96284.62
2019-03-08T18:02:44.192Z,96281.06
2019-03-08T18:05:45.260Z,96285.02
2019-03-08T18:08:54.117Z,96289.95
2019-03-08T18:11:55.277Z,96291.05
2019-03-08T18:18:09.249Z,96307.64
2019-03-08T18:21:14.857Z,96311.41
2019-03-08T18:24:23.389Z,96306.92
2019-03-08T18:27:25.837Z,96318.48
2019-03-08T18:30:30.456Z,96310.28
2019-03-08T18:33:38.946Z,96321.41
2019-03-08T18:36:33.267Z,96327.52
2019-03-08T18:39:41.762Z,96328.11
2019-03-08T18:42:39.928Z,96327.16
2019-03-08T18:45:48.478Z,96327.83
2019-03-08T18:48:49.770Z,96333.58
2019-03-08T18:51:58.316Z,96346.28
2019-03-08T18:54:53.948Z,96351.63
2019-03-08T18:58:02.555Z,96348.58
2019-03-08T19:01:03.373Z,96349.70
2019-03-08T19:04:11.946Z,96336.73
2019-03-08T19:07:05.217Z,96348.08
2019-03-08T19:10:13.764Z,96345.27
2019-03-08T19:13:05.629Z,96358.25
2019-03-08T19:16:14.135Z,96360.91
2019-03-08T19:19:20.892Z,96352.41
2019-03-08T19:22:29.501Z,96354.12
2019-03-08T19:25:30.645Z,96360.89
2019-03-08T19:28:39.192Z,96345.84
2019-03-08T19:31:40.535Z,96359.95
2019-03-08T19:34:49.058Z,96330.66
2019-03-08T19:37:41.140Z,96360.31
2019-03-08T19:40:41.663Z,96363.02
2019-03-08T19:43:30.002Z,96356.91
2019-03-08T19:46:38.498Z,96362.27
2019-03-08T19:49:42.835Z,96340.23
2019-03-08T19:52:51.386Z,96350.77
2019-03-08T19:55:52.540Z,96329.47
2019-03-08T19:58:57.551Z,96353.25
2019-03-08T20:01:59.100Z,96347.78
2019-03-08T20:08:03.881Z,96359.10
2019-03-08T20:11:05.648Z,96363.02
2019-03-08T20:14:14.322Z,96365.95
2019-03-08T20:17:17.806Z,96352.62
2019-03-08T20:26:18.262Z,96368.75
2019-03-08T20:29:23.026Z,96372.58
2019-03-08T20:32:30.266Z,96375.72
2019-03-08T20:35:36.538Z,96380.98
2019-03-08T20:38:45.074Z,96378.08
2019-03-08T20:41:51.890Z,96381.36
2019-03-08T20:44:47.492Z,96378.28
2019-03-08T20:47:55.893Z,96374.52
2019-03-08T20:50:37.873Z,96373.92
2019-03-08T20:53:27.563Z,96382.50
2019-03-08T20:56:09.466Z,96359.27
2019-03-08T20:58:59.491Z,96385.34
2019-03-08T21:01:41.587Z,96387.27
2019-03-08T21:04:31.276Z,96384.28
2019-03-08T21:07:13.766Z,96393.83
2019-03-08T21:10:03.743Z,96374.51
2019-03-08T21:12:46.556Z,96400.38
2019-03-08T21:15:36.368Z,96392.69
2019-03-08T21:18:26.035Z,96398.61
2019-03-08T21:21:08.781Z,96403.24
2019-03-08T21:23:58.489Z,96400.30
2019-03-08T21:26:40.899Z,96387.28
2019-03-08T21:29:30.629Z,96400.89
2019-03-08T21:32:12.956Z,96391.84
2019-03-08T21:35:02.687Z,96392.62
2019-03-08T21:37:45.903Z,96376.38
2019-03-08T21:40:35.593Z,96381.78
2019-03-08T21:43:17.988Z,96380.22
2019-03-08T21:49:09.086Z,96382.20
2019-03-08T21:51:58.798Z,96384.65
2019-03-08T21:54:45.031Z,96378.44
2019-03-08T21:57:27.164Z,96383.34
2019-03-08T22:00:18.545Z,96385.34
2019-03-08T22:03:08.425Z,96384.64
2019-03-08T22:05:58.216Z,96385.92
2019-03-08T22:12:04.342Z,96378.71
2019-03-08T22:14:47.156Z,96345.72
2019-03-08T22:17:53.135Z,96372.36
2019-03-08T22:20:35.981Z,96359.62
2019-03-08T22:23:26.063Z,96367.72
2019-03-08T22:26:09.087Z,96367.88
2019-03-08T22:34:35.867Z,96358.23
2019-03-08T22:37:22.711Z,96362.30
2019-03-08T22:40:05.531Z,96360.16
2019-03-08T22:42:48.467Z,96369.16
2019-03-08T22:45:38.522Z,96361.67
2019-03-08T22:48:28.553Z,96354.44
2019-03-08T22:51:18.405Z,96345.97
2019-03-08T22:54:08.505Z,96343.83
2019-03-08T22:56:58.557Z,96341.11
2019-03-08T22:59:49.338Z,96365.44
2019-03-08T23:02:37.666Z,96352.38
2019-03-08T23:05:22.320Z,96360.77
2019-03-08T23:08:12.119Z,96353.80
2019-03-08T23:11:01.903Z,96346.88
2019-03-08T23:13:43.749Z,96343.64
2019-03-08T23:16:26.325Z,96346.99
2019-03-08T23:19:16.348Z,96349.14
2019-03-08T23:21:58.858Z,96336.72
2019-03-08T23:24:48.577Z,96338.37
2019-03-08T23:33:44.854Z,96337.54
2019-03-08T23:36:34.576Z,96349.47
2019-03-08T23:39:18.570Z,96326.58
2019-03-08T23:42:08.304Z,96350.86
2019-03-08T23:44:51.714Z,96356.14
2019-03-08T23:47:41.414Z,96338.33
2019-03-08T23:50:23.858Z,96345.40
2019-03-08T23:53:13.582Z,96357.01
2019-03-08T23:55:55.614Z,96357.95
2019-03-08T23:58:45.515Z,96354.97
